Time;durP1;ratioP1;P1;durP2;ratioP2;P2;SDS_P1;SDS_P2;PMS_P1;PMS_P2;Temp;Humidity;BMP_temperature;BMP_pressure;BME280_temperature;BME280_humidity;BME280_pressure;Samples;Min_cycle;Max_cycle;Signal;HPM_P1;HPM_P2
2022/12/29 00:00:07;;;;;;;6.80;5.88;;;9.00;93.30;;;7.77;100.00;99989.44;4987811;28;20105;-76
2022/12/29 00:02:40;;;;;;;6.50;5.78;;;9.10;93.60;;;7.80;100.00;99989.41;4968838;28;20162;-76
2022/12/29 00:05:08;;;;;;;7.28;5.57;;;9.10;93.70;;;7.72;100.00;99977.31;4953119;28;20150;-77
2022/12/29 00:07:35;;;;;;;6.90;5.00;;;9.10;93.50;;;7.74;100.00;99984.25;4987166;28;20062;-77
2022/12/29 00:10:03;;;;;;;7.13;5.68;;;9.10;93.80;;;7.61;100.00;99977.50;4987141;28;20070;-77
2022/12/29 00:15:36;;;;;;;6.20;5.20;;;9.00;93.80;;;7.70;100.00;99982.59;4971159;28;20065;-78
2022/12/29 00:18:03;;;;;;;6.15;5.55;;;9.10;93.60;;;7.66;100.00;99973.91;4994553;28;20056;-76
2022/12/29 00:35:10;;;;;;;10.93;6.30;;;10.10;93.90;;;8.22;100.00;99965.00;5009250;28;20084;-76
2022/12/29 00:46:01;;;;;;;4.90;2.80;;;9.60;93.20;;;8.72;100.00;99971.81;5012443;28;20046;-78
2022/12/29 00:51:15;;;;;;;4.30;2.90;;;10.20;92.80;;;8.97;100.00;99978.25;5008071;28;20049;-77
2022/12/29 00:53:44;;;;;;;5.25;3.08;;;9.90;92.60;;;9.00;100.00;99979.06;5007629;28;20200;-77
2022/12/29 00:56:11;;;;;;;3.72;2.63;;;10.00;92.50;;;9.14;100.00;99983.97;5007802;28;20052;-77
2022/12/29 00:58:38;;;;;;;4.65;2.63;;;10.00;92.30;;;9.35;100.00;99987.81;5006342;28;20038;-76
2022/12/29 01:01:08;;;;;;;3.63;2.67;;;10.20;92.00;;;9.50;100.00;99969.94;5010394;28;20038;-77
2022/12/29 01:03:37;;;;;;;4.30;2.50;;;10.40;91.80;;;9.64;100.00;99975.72;5006801;28;20045;-77
2022/12/29 01:06:10;;;;;;;3.88;2.58;;;11.30;91.80;;;9.60;100.00;99976.69;5004667;28;20046;-77
2022/12/29 01:08:37;;;;;;;3.97;2.50;;;10.60;91.60;;;9.66;100.00;99983.53;4996813;28;20128;-77
2022/12/29 01:11:08;;;;;;;3.53;2.75;;;11.40;91.80;;;9.75;100.00;99982.41;4993089;28;20053;-77
2022/12/29 01:13:36;;;;;;;3.65;2.75;;;10.70;91.50;;;9.79;100.00;99979.69;5007085;28;20500;-77
2022/12/29 01:16:07;;;;;;;6.68;3.95;;;10.70;91.70;;;9.87;100.00;99984.72;5008278;28;20057;-77
2022/12/29 01:18:34;;;;;;;;;;;10.80;91.80;;;9.94;100.00;99974.91;5009011;28;20631;-77
2022/12/29 01:21:05;;;;;;;4.57;2.30;;;11.00;91.80;;;10.02;100.00;99969.44;4993021;28;19985;-76
2022/12/29 01:23:33;;;;;;;2.80;2.38;;;10.90;91.60;;;9.93;100.00;99974.06;4991369;28;20048;-76
2022/12/29 01:26:12;;;;;;;3.22;2.13;;;10.90;91.70;;;10.12;100.00;99978.78;5004774;28;20141;-76
2022/12/29 01:28:41;;;;;;;3.42;2.72;;;11.00;91.70;;;10.07;100.00;99975.44;4989609;28;20042;-76
2022/12/29 01:31:10;;;;;;;7.25;3.40;;;11.20;91.70;;;10.10;100.00;99974.47;4991615;28;20495;-76
2022/12/29 01:33:38;;;;;;;4.47;2.50;;;11.10;91.60;;;10.04;100.00;99973.75;4973113;28;20104;-77
2022/12/29 01:36:11;;;;;;;4.10;3.03;;;11.10;91.60;;;10.17;100.00;99976.03;4991098;28;20509;-76
2022/12/29 01:38:39;;;;;;;4.30;2.63;;;11.10;91.40;;;10.04;100.00;99965.88;5007879;28;20045;-76
2022/12/29 01:41:09;;;;;;;4.25;2.42;;;11.10;91.60;;;10.16;100.00;99971.69;5006614;28;20040;-76
2022/12/29 01:43:39;;;;;;;3.67;2.87;;;11.10;91.40;;;10.13;100.00;99980.53;4990346;28;20776;-76
2022/12/29 01:46:30;;;;;;;3.08;2.20;;;11.20;91.40;;;10.20;100.00;99976.78;4970024;28;20293;-76
2022/12/29 01:49:19;;;;;;;7.72;2.50;;;11.10;91.50;;;10.31;100.00;99973.88;5009259;28;20429;-76
2022/12/29 01:52:01;;;;;;;4.50;2.55;;;11.30;91.40;;;10.33;100.00;99974.69;5007977;28;20049;-76
2022/12/29 01:54:53;;;;;;;5.22;2.50;;;11.30;91.40;;;10.42;100.00;99975.34;5007284;28;20137;-76
2022/12/29 01:57:31;;;;;;;3.97;2.22;;;11.30;91.60;;;10.35;100.00;99983.41;4949280;28;20080;-76
2022/12/29 02:00:13;;;;;;;3.15;2.13;;;12.10;92.40;;;10.38;100.00;99979.81;4933670;28;20070;-75
2022/12/29 02:02:50;;;;;;;4.50;2.83;;;11.30;92.50;;;10.34;100.00;99975.53;4949863;28;20047;-76
2022/12/29 02:05:43;;;;;;;3.70;2.47;;;11.50;93.00;;;10.33;100.00;99976.44;4950233;28;20051;-76
2022/12/29 02:08:13;;;;;;;5.97;2.28;;;11.30;93.10;;;10.36;100.00;99965.81;4950115;28;20078;-75
2022/12/29 02:10:42;;;;;;;2.70;2.05;;;11.30;93.10;;;10.39;100.00;99965.75;4950350;28;20047;-76
2022/12/29 02:13:09;;;;;;;5.78;2.25;;;11.40;93.20;;;10.50;100.00;99965.47;4933937;28;20098;-75
2022/12/29 02:16:02;;;;;;;3.38;2.22;;;11.90;93.30;;;10.54;100.00;99963.63;4966849;28;20058;-75
2022/12/29 02:19:01;;;;;;;4.68;3.03;;;11.50;93.20;;;10.53;100.00;99967.13;4934853;28;20051;-76
2022/12/29 02:21:58;;;;;;;3.83;2.60;;;11.50;93.30;;;10.53;100.00;99952.22;4960684;28;20047;-76
2022/12/29 02:24:45;;;;;;;3.50;2.30;;;11.50;93.00;;;10.50;100.00;99963.69;4949536;28;20057;-76
2022/12/29 02:27:12;;;;;;;3.28;2.20;;;11.50;93.00;;;10.51;100.00;99961.94;4933692;28;20053;-76
2022/12/29 02:30:00;;;;;;;4.68;2.28;;;11.50;93.10;;;10.47;100.00;99963.78;4949112;28;20062;-76
2022/12/29 02:32:52;;;;;;;4.90;2.60;;;11.50;93.20;;;10.52;100.00;99965.41;4945976;28;20062;-76
2022/12/29 02:35:36;;;;;;;4.10;2.30;;;11.90;93.30;;;10.49;100.00;99966.38;4998213;28;20054;-76
2022/12/29 02:38:45;;;;;;;3.53;2.20;;;11.70;93.20;;;10.54;100.00;99968.88;5007332;28;20054;-76
2022/12/29 02:41:39;;;;;;;4.15;2.20;;;11.50;93.10;;;10.62;100.00;99964.22;5006929;28;20046;-76
2022/12/29 02:44:43;;;;;;;3.67;2.10;;;11.50;93.10;;;10.64;100.00;99950.13;5007357;28;20156;-76
2022/12/29 02:47:22;;;;;;;3.65;2.20;;;12.40;93.90;;;10.54;100.00;99942.56;5006878;28;20056;-76
2022/12/29 02:50:12;;;;;;;4.28;2.17;;;11.60;94.00;;;10.50;100.00;99947.91;5001939;28;20172;-76
2022/12/29 02:53:05;;;;;;;4.22;1.92;;;11.60;94.10;;;10.48;100.00;99944.47;5023867;28;20041;-76
2022/12/29 02:55:34;;;;;;;3.10;2.10;;;11.60;94.30;;;10.50;100.00;99942.63;4992352;28;20045;-76
2022/12/29 02:58:21;;;;;;;4.40;2.20;;;11.50;94.30;;;10.48;100.00;99936.56;5006896;28;20152;-76
2022/12/29 03:01:09;;;;;;;5.03;2.50;;;11.50;94.30;;;10.41;100.00;99935.03;5007108;28;20041;-76
2022/12/29 03:04:13;;;;;;;5.15;3.10;;;11.50;94.50;;;10.38;100.00;99936.88;4998041;28;20091;-76
2022/12/29 03:07:22;;;;;;;5.10;2.42;;;11.40;94.60;;;10.48;100.00;99938.34;5007543;28;20049;-76
2022/12/29 03:10:12;;;;;;;3.28;2.05;;;11.50;94.60;;;10.49;100.00;99927.75;5004927;28;20064;-76
2022/12/29 03:16:17;;;;;;;4.32;1.98;;;11.40;94.30;;;10.64;100.00;99922.94;5022571;28;20111;-76
2022/12/29 03:19:28;;;;;;;4.70;2.30;;;11.60;94.20;;;10.66;100.00;99922.91;5007010;28;20053;-74
2022/12/29 03:25:15;;;;;;;8.77;2.20;;;11.70;93.90;;;10.68;100.00;99908.78;4992724;28;20050;-75
2022/12/29 03:28:09;;;;;;;3.45;1.80;;;11.70;94.00;;;10.66;100.00;99910.59;5005029;28;20048;-74
2022/12/29 03:30:42;;;;;;;2.80;1.70;;;12.30;94.10;;;10.74;100.00;99899.81;5006015;28;20057;-74
2022/12/29 03:33:22;;;;;;;3.35;2.20;;;12.00;93.90;;;10.69;100.00;99889.44;4973850;28;20513;-75
2022/12/29 03:35:54;;;;;;;2.85;2.00;;;11.70;94.00;;;10.72;100.00;99881.47;5005166;28;20092;-75
2022/12/29 03:38:38;;;;;;;4.03;2.85;;;12.10;93.80;;;10.80;100.00;99885.59;4989095;28;20120;-75
2022/12/29 03:41:13;;;;;;;3.67;2.15;;;11.70;93.70;;;10.73;100.00;99875.28;4992151;28;20489;-75
2022/12/29 03:43:40;;;;;;;3.95;2.42;;;11.70;93.40;;;10.77;100.00;99883.94;4992716;28;20050;-75
2022/12/29 03:46:07;;;;;;;3.25;2.05;;;11.70;93.30;;;10.83;100.00;99883.75;5008539;28;20107;-75
2022/12/29 03:48:35;;;;;;;3.92;2.28;;;11.80;93.10;;;10.70;100.00;99864.00;4974600;28;20340;-75
2022/12/29 03:51:03;;;;;;;3.10;2.25;;;12.30;93.30;;;10.72;100.00;99868.31;4992462;28;20045;-74
2022/12/29 03:53:30;;;;;;;3.42;2.53;;;11.70;93.10;;;10.78;100.00;99862.84;5009630;28;20096;-75
2022/12/29 03:55:57;;;;;;;4.47;1.73;;;10.40;92.50;;;10.86;100.00;99857.31;4993761;28;20521;-75
2022/12/29 03:58:24;;;;;;;6.63;2.08;;;11.80;92.50;;;10.83;100.00;99860.06;5010078;28;20071;-74
2022/12/29 04:01:04;;;;;;;3.22;1.90;;;11.90;92.70;;;10.80;100.00;99849.66;5012496;28;20046;-75
2022/12/29 04:03:34;;;;;;;3.35;1.80;;;11.80;92.60;;;10.84;100.00;99853.00;5010255;28;20419;-74
2022/12/29 04:06:01;;;;;;;3.58;2.20;;;12.20;92.70;;;10.86;100.00;99859.94;4992695;28;20050;-75
2022/12/29 04:08:34;;;;;;;2.63;1.88;;;11.90;92.40;;;10.99;100.00;99854.28;4993299;28;20461;-74
2022/12/29 04:11:02;;;;;;;3.70;1.77;;;11.90;92.10;;;11.00;100.00;99851.56;4992313;28;20058;-75
2022/12/29 04:13:29;;;;;;;3.05;1.80;;;12.30;92.20;;;11.03;100.00;99855.88;4992046;28;20049;-75
2022/12/29 04:15:57;;;;;;;2.30;2.08;;;12.60;92.10;;;11.04;100.00;99852.34;5008370;28;20060;-75
2022/12/29 04:18:25;;;;;;;2.70;1.92;;;12.10;92.00;;;11.10;100.00;99848.66;5009566;28;20076;-75
2022/12/29 04:21:03;;;;;;;2.47;1.90;;;12.00;91.60;;;11.13;100.00;99845.91;5007987;28;20480;-74
2022/12/29 04:23:38;;;;;;;4.72;1.80;;;12.20;91.60;;;11.13;100.00;99851.16;4993264;28;20127;-74
2022/12/29 04:26:08;;;;;;;2.97;1.75;;;13.00;91.60;;;11.19;100.00;99846.53;5008294;28;20132;-75
2022/12/29 04:29:01;;;;;;;2.83;2.10;;;12.10;91.10;;;11.10;100.00;99841.63;5007714;28;20049;-74
2022/12/29 04:31:57;;;;;;;4.13;2.30;;;12.10;91.30;;;11.11;100.00;99843.34;4999620;28;20501;-75
2022/12/29 04:34:24;;;;;;;3.17;1.92;;;12.70;91.40;;;11.07;100.00;99839.06;4991455;28;20046;-75
2022/12/29 04:36:51;;;;;;;3.80;2.30;;;12.10;91.40;;;11.18;100.00;99846.63;4975747;28;20060;-75
2022/12/29 04:39:19;;;;;;;2.83;1.90;;;12.20;90.70;;;11.18;100.00;99829.03;4976252;28;20572;-75
2022/12/29 04:41:47;;;;;;;2.05;1.60;;;12.10;90.70;;;11.26;100.00;99841.94;5007927;28;20045;-74
2022/12/29 04:44:19;;;;;;;2.10;1.70;;;12.10;90.50;;;11.17;100.00;99831.75;5007643;28;20137;-74
2022/12/29 04:47:09;;;;;;;3.50;2.10;;;12.30;90.80;;;11.16;100.00;99827.34;4994605;28;20042;-75
2022/12/29 04:49:44;;;;;;;3.70;1.88;;;12.70;90.80;;;11.11;100.00;99832.81;4989189;28;20138;-75
2022/12/29 04:52:46;;;;;;;4.93;1.83;;;12.60;90.90;;;11.07;100.00;99829.41;5014100;28;20053;-74
2022/12/29 04:55:14;;;;;;;2.95;2.15;;;12.10;90.90;;;11.21;100.00;99839.44;4992012;28;20426;-75
2022/12/29 04:57:42;;;;;;;3.35;2.00;;;12.20;90.70;;;11.22;100.00;99835.06;4971868;28;20049;-74
2022/12/29 05:00:14;;;;;;;3.08;2.10;;;12.20;90.40;;;11.15;100.00;99837.03;4988044;28;20046;-75
2022/12/29 05:02:41;;;;;;;4.00;2.15;;;12.10;90.70;;;11.11;100.00;99851.22;4987572;28;20130;-75
2022/12/29 05:05:09;;;;;;;2.78;1.80;;;12.10;90.80;;;11.14;100.00;99845.84;5001308;28;20046;-75
2022/12/29 05:07:42;;;;;;;3.20;1.85;;;12.10;90.80;;;11.07;100.00;99850.47;5007422;28;20847;-75
2022/12/29 05:10:10;;;;;;;2.53;1.92;;;12.10;91.30;;;11.14;100.00;99860.78;4991810;28;20153;-75
2022/12/29 05:12:38;;;;;;;2.83;2.00;;;12.10;90.90;;;11.12;100.00;99858.22;5007971;28;20563;-75
2022/12/29 05:15:08;;;;;;;5.07;2.40;;;12.50;90.90;;;11.10;100.00;99854.78;4985654;28;20060;-75
2022/12/29 05:17:35;;;;;;;3.88;1.90;;;12.10;90.90;;;11.23;100.00;99862.22;4969105;28;20230;-75
2022/12/29 05:20:04;;;;;;;2.95;1.80;;;12.30;90.70;;;11.20;100.00;99848.25;4965911;28;20141;-74
2022/12/29 05:22:34;;;;;;;3.55;1.92;;;12.20;90.80;;;11.20;100.00;99850.06;4965826;28;20051;-75
2022/12/29 05:25:01;;;;;;;3.47;1.90;;;12.30;90.80;;;11.16;100.00;99846.66;4966200;28;20073;-75
2022/12/29 05:27:31;;;;;;;4.13;2.70;;;12.20;90.90;;;11.27;100.00;99842.81;4947251;28;20157;-75
2022/12/29 05:30:17;;;;;;;2.28;1.73;;;12.30;90.50;;;11.22;100.00;99840.31;4985550;28;20238;-75
2022/12/29 05:32:45;;;;;;;2.97;2.10;;;12.20;90.60;;;11.28;100.00;99840.09;4968893;28;20104;-75
2022/12/29 05:35:12;;;;;;;3.20;1.90;;;12.20;90.30;;;11.20;100.00;99829.84;4968908;28;20058;-75
2022/12/29 05:37:40;;;;;;;3.03;1.77;;;12.30;90.40;;;11.14;100.00;99826.56;4953290;28;20603;-74
2022/12/29 05:40:08;;;;;;;3.42;2.40;;;12.20;90.50;;;11.09;100.00;99828.50;4936909;28;20042;-74
2022/12/29 05:42:36;;;;;;;3.72;3.15;;;12.10;90.60;;;11.11;100.00;99830.19;4985630;28;20046;-74
2022/12/29 05:45:26;;;;;;;;;;;12.10;90.50;;;11.07;100.00;99829.41;4963153;28;20154;-74
2022/12/29 05:48:23;;;;;;;5.03;3.05;;;12.10;90.60;;;11.05;100.00;99838.25;5005849;28;19944;-74
2022/12/29 05:51:16;;;;;;;3.95;2.08;;;12.00;90.70;;;11.07;100.00;99853.09;5006664;28;20061;-74
2022/12/29 05:53:49;;;;;;;5.30;2.65;;;12.00;90.80;;;11.12;100.00;99838.91;5006142;28;20133;-74
2022/12/29 05:56:17;;;;;;;73.40;56.97;;;12.10;90.60;;;11.10;100.00;99833.72;4992185;28;20104;-73
2022/12/29 05:58:50;;;;;;;8.27;5.18;;;12.40;90.70;;;11.09;100.00;99852.19;5008376;28;20113;-74
2022/12/29 06:01:17;;;;;;;5.43;4.75;;;12.10;90.60;;;11.07;100.00;99847.84;4991344;28;20057;-73
2022/12/29 06:03:44;;;;;;;5.63;4.90;;;12.30;90.80;;;11.12;100.00;99849.44;4991326;28;20058;-74
2022/12/29 06:06:15;;;;;;;3.20;2.55;;;12.20;90.60;;;11.11;100.00;99837.19;5007835;28;20049;-74
2022/12/29 06:08:44;;;;;;;4.40;2.60;;;12.60;90.80;;;11.17;100.00;99834.38;5006612;28;20042;-74
2022/12/29 06:11:13;;;;;;;6.35;5.80;;;12.60;90.60;;;11.16;100.00;99845.78;4989759;28;20525;-73
2022/12/29 06:13:46;;;;;;;5.88;2.88;;;12.10;90.60;;;11.16;100.00;99836.13;4989988;28;20600;-73
2022/12/29 06:16:13;;;;;;;3.50;2.85;;;12.10;90.60;;;11.15;100.00;99837.03;4943390;28;20042;-73
2022/12/29 06:18:42;;;;;;;6.97;3.45;;;12.10;90.60;;;11.17;100.00;99843.13;5001048;28;20437;-73
2022/12/29 06:21:09;;;;;;;4.72;4.28;;;12.10;90.50;;;11.18;100.00;99828.19;5003909;28;20049;-75
2022/12/29 06:23:36;;;;;;;4.13;2.88;;;12.10;90.40;;;11.14;100.00;99831.81;4952285;28;20540;-73
2022/12/29 06:26:04;;;;;;;3.38;2.45;;;12.10;90.50;;;11.12;100.00;99823.13;5004851;28;20041;-73
2022/12/29 06:28:32;;;;;;;3.75;2.63;;;12.10;90.60;;;11.16;100.00;99827.34;5005482;28;20570;-73
2022/12/29 06:31:01;;;;;;;4.05;3.00;;;12.10;90.50;;;11.16;100.00;99822.97;5002029;28;20124;-73
2022/12/29 06:33:29;;;;;;;3.58;2.72;;;12.40;90.70;;;11.14;100.00;99816.03;5003750;28;20057;-73
2022/12/29 06:35:56;;;;;;;3.95;2.50;;;12.10;90.50;;;11.23;100.00;99815.72;4986516;28;20605;-73
2022/12/29 06:38:24;;;;;;;4.95;3.83;;;12.20;90.50;;;11.24;100.00;99825.31;4989083;28;20045;-73
2022/12/29 06:40:51;;;;;;;5.85;5.20;;;12.30;90.40;;;11.25;100.00;99805.97;4988868;28;20045;-73
2022/12/29 06:43:21;;;;;;;4.75;4.32;;;12.60;90.50;;;11.26;100.00;99798.94;5012390;28;20049;-73
2022/12/29 06:46:24;;;;;;;5.10;2.65;;;12.20;90.30;;;11.23;100.00;99804.31;5021318;28;20614;-73
2022/12/29 06:48:51;;;;;;;3.63;2.08;;;12.20;90.40;;;11.30;100.00;99797.91;4985161;28;20060;-73
2022/12/29 06:51:18;;;;;;;3.78;3.00;;;12.30;90.20;;;11.24;100.00;99796.34;5006210;28;20398;-73
2022/12/29 06:53:45;;;;;;;3.50;2.50;;;12.20;90.20;;;11.27;100.00;99795.41;4994984;28;20041;-73
2022/12/29 06:56:12;;;;;;;3.17;2.22;;;12.50;90.20;;;11.28;100.00;99797.13;4995805;28;20049;-73
2022/12/29 06:58:39;;;;;;;5.72;3.03;;;12.20;90.00;;;11.30;100.00;99805.81;4993133;28;20054;-73
2022/12/29 07:01:06;;;;;;;4.95;3.35;;;13.20;90.30;;;11.34;100.00;99802.16;4992836;28;20069;-73
2022/12/29 07:03:33;;;;;;;3.75;2.45;;;12.50;89.90;;;11.32;100.00;99812.75;4993545;28;20518;-73
2022/12/29 07:06:00;;;;;;;5.90;2.50;;;12.30;89.80;;;11.23;100.00;99804.31;4998108;28;20414;-72
2022/12/29 07:08:27;;;;;;;4.22;3.33;;;12.40;90.00;;;11.18;100.00;99813.22;4994278;28;20104;-72
2022/12/29 07:10:54;;;;;;;5.72;2.45;;;12.20;90.10;;;11.20;100.00;99821.09;5017636;28;20059;-72
2022/12/29 07:13:21;;;;;;;3.13;2.63;;;12.10;89.90;;;11.18;100.00;99815.88;5026991;28;20059;-72
2022/12/29 07:15:48;;;;;;;3.70;2.75;;;12.20;90.10;;;11.20;100.00;99823.72;5005630;28;20072;-73
2022/12/29 07:18:16;;;;;;;3.88;2.85;;;12.10;89.90;;;11.13;100.00;99814.31;5032604;28;20055;-71
2022/12/29 07:20:43;;;;;;;3.35;2.65;;;12.10;90.10;;;11.10;100.00;99811.78;5032397;28;20052;-72
2022/12/29 07:23:10;;;;;;;7.05;2.72;;;12.00;90.10;;;11.11;100.00;99816.13;5026146;28;20045;-72
2022/12/29 07:25:37;;;;;;;3.00;2.70;;;13.10;90.10;;;11.14;100.00;99809.00;5026142;28;20056;-72
2022/12/29 07:28:05;;;;;;;4.85;2.80;;;12.50;89.70;;;11.18;100.00;99820.28;5026626;28;20041;-74
2022/12/29 07:30:33;;;;;;;3.90;1.98;;;12.10;89.30;;;11.19;100.00;99830.75;5026876;28;20067;-71
2022/12/29 07:33:00;;;;;;;5.80;2.45;;;13.10;89.80;;;11.12;100.00;99821.34;5006041;28;20045;-72
2022/12/29 07:35:27;;;;;;;5.28;2.38;;;12.10;89.40;;;11.24;100.00;99830.59;5017178;28;20048;-72
2022/12/29 07:37:54;;;;;;;3.55;2.58;;;12.10;88.90;;;11.21;100.00;99825.44;5013546;28;20053;-72
2022/12/29 07:40:21;;;;;;;4.25;2.50;;;12.10;89.20;;;11.16;100.00;99827.34;5024367;28;20487;-72
2022/12/29 07:42:48;;;;;;;3.67;3.10;;;12.20;89.10;;;11.20;100.00;99826.34;5005931;28;20065;-72
2022/12/29 07:45:17;;;;;;;3.85;2.65;;;12.10;88.70;;;11.24;100.00;99833.22;5003424;28;20185;-72
2022/12/29 07:48:08;;;;;;;3.90;3.03;;;12.60;88.90;;;11.26;100.00;99836.66;4976297;28;20057;-71
2022/12/29 07:50:36;;;;;;;4.57;2.35;;;12.20;88.60;;;11.24;100.00;99827.09;5020744;28;20058;-72
2022/12/29 07:53:03;;;;;;;4.13;2.70;;;12.20;88.80;;;11.25;100.00;99823.56;5004089;28;20050;-70
2022/12/29 07:55:30;;;;;;;3.85;2.42;;;12.20;88.60;;;11.28;100.00;99834.81;5003880;28;20042;-72
2022/12/29 07:57:58;;;;;;;3.20;2.53;;;12.20;88.50;;;11.30;100.00;99845.31;4987753;28;20052;-72
2022/12/29 08:00:26;;;;;;;3.45;2.28;;;12.20;88.30;;;11.35;100.00;99843.38;5005724;28;20057;-72
2022/12/29 08:02:53;;;;;;;4.13;2.45;;;12.50;88.40;;;11.33;100.00;99832.91;4988110;28;20476;-72
2022/12/29 08:05:20;;;;;;;5.22;2.92;;;12.20;87.70;;;11.34;100.00;99834.63;5004728;28;20053;-71
2022/12/29 08:07:47;;;;;;;5.15;3.03;;;12.30;87.80;;;11.33;100.00;99842.56;5005260;28;20089;-72
2022/12/29 08:10:15;;;;;;;2.58;2.10;;;12.70;88.50;;;11.31;100.00;99845.25;5005326;28;20053;-71
2022/12/29 08:12:43;;;;;;;6.13;2.47;;;12.30;88.20;;;11.33;100.00;99847.84;5004638;28;20080;-71
2022/12/29 08:15:12;;;;;;;4.90;2.42;;;12.80;88.00;;;11.27;100.00;99841.00;4989288;28;20058;-71
2022/12/29 08:17:39;;;;;;;3.15;2.75;;;12.40;87.80;;;11.29;100.00;99857.63;4988715;28;20057;-72
2022/12/29 08:20:07;;;;;;;5.22;2.65;;;12.20;87.60;;;11.27;100.00;99862.06;5004974;28;20050;-72
2022/12/29 08:22:34;;;;;;;2.67;2.40;;;12.30;87.90;;;11.29;100.00;99862.03;5004612;28;20053;-72
2022/12/29 08:25:03;;;;;;;4.30;2.65;;;12.20;87.60;;;11.34;100.00;99866.22;5005653;28;20528;-70
2022/12/29 08:27:30;;;;;;;4.70;2.63;;;12.20;87.50;;;11.33;100.00;99866.28;5007755;28;20071;-72
2022/12/29 08:29:57;;;;;;;3.00;2.40;;;12.30;87.50;;;11.42;100.00;99881.75;5007489;28;20041;-72
2022/12/29 08:32:24;;;;;;;6.15;2.80;;;12.30;87.60;;;11.41;100.00;99880.03;5009413;28;20077;-72
2022/12/29 08:34:51;;;;;;;7.75;2.75;;;12.30;87.40;;;11.56;100.00;99883.06;5009618;28;20046;-72
2022/12/29 08:37:19;;;;;;;4.63;3.20;;;12.40;86.70;;;11.59;100.00;99883.78;5008046;28;20120;-72
2022/12/29 08:39:45;;;;;;;4.90;3.10;;;12.70;87.10;;;11.68;100.00;99882.59;5008521;28;20049;-72
2022/12/29 08:42:13;;;;;;;4.97;3.03;;;13.00;87.10;;;11.73;100.00;99888.56;5007934;28;20045;-72
2022/12/29 08:44:40;;;;;;;5.10;2.90;;;12.60;86.60;;;11.82;100.00;99878.59;5007509;28;20030;-71
2022/12/29 08:47:10;;;;;;;7.05;2.95;;;12.70;86.30;;;11.80;100.00;99886.56;5007396;28;20084;-72
2022/12/29 08:49:37;;;;;;;4.78;3.30;;;13.30;86.90;;;11.78;100.00;99886.63;5007684;28;20050;-72
2022/12/29 08:52:05;;;;;;;6.25;4.60;;;12.80;86.60;;;11.86;100.00;99875.78;5006922;28;20100;-71
2022/12/29 08:54:32;;;;;;;4.35;3.08;;;12.80;86.20;;;11.87;100.00;99895.97;5007328;28;20633;-72
2022/12/29 08:56:59;;;;;;;7.88;4.03;;;12.80;86.60;;;11.92;100.00;99893.16;5007305;28;20154;-71
2022/12/29 08:59:34;;;;;;;4.50;3.55;;;12.80;86.00;;;11.89;100.00;99886.22;5007117;28;20054;-71
2022/12/29 09:02:02;;;;;;;5.68;3.10;;;12.80;87.10;;;11.90;100.00;99889.72;5007413;28;20038;-72
2022/12/29 09:04:29;;;;;;;6.13;3.90;;;12.80;87.20;;;11.92;100.00;99893.16;5008453;28;20088;-72
2022/12/29 09:06:57;;;;;;;5.38;3.20;;;13.00;87.10;;;12.01;100.00;99897.22;5007150;28;20722;-71
2022/12/29 09:09:24;;;;;;;6.63;3.50;;;12.90;86.30;;;12.09;100.00;99889.91;5007661;28;20052;-72
2022/12/29 09:11:52;;;;;;;6.22;5.63;;;12.90;85.90;;;12.14;100.00;99887.09;4992440;28;20054;-72
2022/12/29 09:14:21;;;;;;;6.05;3.60;;;13.00;86.40;;;12.18;100.00;99900.09;5009190;28;20053;-71
2022/12/29 09:19:37;;;;;;;7.32;4.05;;;13.00;85.90;;;12.26;100.00;99902.44;5035135;23;20410;-73
2022/12/29 09:22:05;;;;;;;3.17;2.70;;;13.10;85.90;;;12.30;100.00;99903.19;5007262;28;20411;-72
2022/12/29 09:24:32;;;;;;;8.77;3.13;;;13.30;85.70;;;12.28;100.00;99924.34;5006959;28;20038;-73
2022/12/29 09:26:59;;;;;;;4.78;3.50;;;13.20;86.10;;;12.25;100.00;99924.47;5008415;28;20042;-73
2022/12/29 09:29:26;;;;;;;5.55;2.50;;;13.20;86.00;;;12.24;100.00;99940.34;5022826;28;20595;-73
2022/12/29 09:31:53;;;;;;;3.92;2.58;;;13.80;85.90;;;12.26;100.00;99941.19;5026583;28;20041;-73
2022/12/29 09:34:20;;;;;;;4.38;2.90;;;13.20;87.30;;;12.11;100.00;99935.56;5006449;28;20164;-73
2022/12/29 09:36:48;;;;;;;6.97;3.78;;;13.10;89.30;;;11.98;100.00;99940.38;5007326;28;20048;-72
2022/12/29 09:39:15;;;;;;;7.22;3.30;;;13.00;88.90;;;11.91;100.00;99945.00;5017779;28;20052;-73
2022/12/29 09:42:03;;;;;;;6.50;4.88;;;12.90;89.20;;;11.92;100.00;99935.34;5009880;28;20053;-71
2022/12/29 09:45:06;;;;;;;6.20;3.25;;;12.80;88.90;;;11.94;100.00;99940.53;5027616;28;20055;-72
2022/12/29 09:47:34;;;;;;;3.80;2.83;;;12.80;88.70;;;11.99;100.00;99952.63;5027199;28;20049;-73
2022/12/29 09:50:28;;;;;;;4.75;3.10;;;12.90;89.00;;;12.01;100.00;99945.56;5027993;28;20041;-73
2022/12/29 09:53:35;;;;;;;3.85;2.80;;;12.90;89.20;;;12.03;100.00;99953.41;5028769;28;20463;-73
2022/12/29 09:56:04;;;;;;;4.82;3.00;;;12.90;88.30;;;12.04;100.00;99968.31;5045639;28;20106;-73
2022/12/29 09:58:52;;;;;;;4.47;3.13;;;12.90;88.30;;;12.05;100.00;99948.94;5027854;28;20053;-73
2022/12/29 10:01:54;;;;;;;5.07;2.95;;;13.00;88.70;;;12.06;100.00;99958.56;5028118;28;20109;-73
2022/12/29 10:04:22;;;;;;;3.80;2.78;;;13.00;88.60;;;12.04;100.00;99963.06;5012370;28;20037;-75
2022/12/29 10:07:10;;;;;;;3.95;3.55;;;13.50;89.10;;;12.11;100.00;99961.94;5024560;28;20045;-73
2022/12/29 10:10:14;;;;;;;3.75;2.67;;;13.00;89.00;;;12.12;100.00;99963.66;5023848;28;20049;-73
2022/12/29 10:12:58;;;;;;;4.53;2.80;;;13.00;89.60;;;12.05;100.00;99948.94;5028254;28;20065;-73
2022/12/29 10:16:12;;;;;;;5.72;2.80;;;13.00;90.70;;;11.94;100.00;99954.59;5034385;28;20055;-73
2022/12/29 10:18:54;;;;;;;4.90;2.60;;;12.90;91.30;;;11.86;100.00;99952.22;4955232;28;20558;-74
2022/12/29 10:21:48;;;;;;;5.25;3.15;;;12.80;91.30;;;11.84;100.00;99951.44;4945516;29;20051;-73
2022/12/29 10:24:18;;;;;;;6.60;3.55;;;12.80;91.40;;;11.79;100.00;99956.03;4947714;28;20054;-73
2022/12/29 10:26:48;;;;;;;;;;;12.70;91.70;;;11.83;100.00;99962.03;4948459;28;20041;-74
2022/12/29 10:29:20;;;;;;;6.22;2.85;;;12.70;91.50;;;11.86;100.00;99954.00;4943244;28;19937;-73
2022/12/29 10:32:01;;;;;;;4.90;3.92;;;12.80;91.40;;;11.92;100.00;99964.34;4945619;28;20094;-72
2022/12/29 10:34:43;;;;;;;3.72;3.20;;;12.80;91.40;;;12.01;100.00;99971.91;4931389;28;20058;-72
2022/12/29 10:37:30;;;;;;;5.25;3.42;;;12.80;90.80;;;12.16;100.00;99973.16;4946038;28;20353;-73
2022/12/29 10:40:33;;;;;;;4.70;3.15;;;13.00;90.40;;;12.30;100.00;99975.25;4947767;28;20058;-74
2022/12/29 10:43:01;;;;;;;5.20;2.33;;;13.10;90.30;;;12.27;100.00;99980.66;4937042;28;20120;-72
2022/12/29 10:45:30;;;;;;;3.85;1.98;;;13.90;90.10;;;12.22;100.00;99998.44;4968206;28;20050;-73
2022/12/29 10:48:05;;;;;;;2.47;1.70;;;13.10;89.80;;;12.32;100.00;99983.13;4952291;28;20090;-73
2022/12/29 10:50:36;;;;;;;2.33;1.92;;;13.20;89.10;;;12.21;100.00;99973.00;4948927;28;20070;-75
2022/12/29 10:53:05;;;;;;;3.08;2.20;;;13.10;90.20;;;12.04;100.00;99984.16;4948067;28;20074;-72
2022/12/29 10:55:36;;;;;;;2.30;1.77;;;13.00;90.40;;;11.97;100.00;99949.19;4949720;28;20071;-74
2022/12/29 10:58:10;;;;;;;3.63;1.90;;;13.10;90.70;;;11.98;100.00;99958.81;4975634;28;20533;-73
2022/12/29 11:00:38;;;;;;;3.30;2.30;;;12.80;90.40;;;11.98;100.00;99976.44;4997699;28;20455;-74
2022/12/29 11:03:26;;;;;;;3.58;2.40;;;12.80;90.50;;;11.99;100.00;99970.25;5011832;28;20119;-74
2022/12/29 11:06:27;;;;;;;2.80;2.15;;;12.80;90.50;;;12.02;100.00;99980.72;5017350;28;20061;-73
2022/12/29 11:09:28;;;;;;;7.30;4.38;;;12.90;90.50;;;12.01;100.00;99968.41;5001602;28;20057;-73
2022/12/29 11:12:30;;;;;;;12.63;8.30;;;12.90;90.60;;;12.15;100.00;99970.56;5024279;28;20049;-73
2022/12/29 11:15:09;;;;;;;13.30;7.90;;;13.00;90.70;;;12.26;100.00;99978.94;5006708;28;20111;-72
2022/12/29 11:17:48;;;;;;;11.55;7.30;;;13.00;90.70;;;12.34;100.00;99970.75;5010648;28;20054;-73
2022/12/29 11:20:38;;;;;;;12.32;7.18;;;13.10;90.60;;;12.40;100.00;99972.28;5022384;28;20502;-72
2022/12/29 11:23:25;;;;;;;;;;;12.20;90.20;;;12.46;100.00;99967.66;5006936;28;20041;-72